createdAt,value
2023-04-30T00:00:28.614Z,3.83
2023-04-30T00:02:55.948Z,4.27
2023-04-30T00:05:22.642Z,4.50
2023-04-30T00:07:49.702Z,4.30
2023-04-30T00:10:16.306Z,4.80
2023-04-30T00:12:43.425Z,4.43
2023-04-30T00:15:11.520Z,4.43
2023-04-30T00:17:38.621Z,4.20
2023-04-30T00:20:06.178Z,4.27
2023-04-30T00:22:33.456Z,3.90
2023-04-30T00:25:00.597Z,3.67
2023-04-30T00:27:28.122Z,4.30
2023-04-30T00:29:55.493Z,3.93
2023-04-30T00:32:22.982Z,3.23
2023-04-30T00:34:49.753Z,3.97
2023-04-30T00:37:16.915Z,3.53
2023-04-30T00:39:44.001Z,4.07
2023-04-30T00:42:11.095Z,3.83
2023-04-30T00:44:38.300Z,3.73
2023-04-30T00:47:05.394Z,3.77
2023-04-30T00:49:32.209Z,4.10
2023-04-30T00:51:59.426Z,3.40
2023-04-30T00:54:26.566Z,3.20
2023-04-30T00:56:53.719Z,3.97
2023-04-30T00:59:20.789Z,3.50
2023-04-30T01:01:48.021Z,3.50
2023-04-30T01:04:15.412Z,3.60
2023-04-30T01:06:43.215Z,3.50
2023-04-30T01:09:10.376Z,3.60
2023-04-30T01:11:42.988Z,3.57
2023-04-30T01:14:25.069Z,3.20
2023-04-30T01:17:00.481Z,3.00
2023-04-30T01:19:44.997Z,2.90
2023-04-30T01:22:30.782Z,2.80
2023-04-30T01:25:07.712Z,3.00
2023-04-30T01:27:56.214Z,3.00
2023-04-30T01:30:23.861Z,2.97
2023-04-30T01:32:51.009Z,3.13
2023-04-30T01:35:18.128Z,3.43
2023-04-30T01:37:57.011Z,3.03
2023-04-30T01:40:24.433Z,2.90
2023-04-30T01:43:09.898Z,3.23
2023-04-30T01:46:04.793Z,3.60
2023-04-30T01:48:46.634Z,2.67
2023-04-30T01:51:13.647Z,3.00
2023-04-30T01:53:46.176Z,2.80
2023-04-30T01:56:21.464Z,3.17
2023-04-30T01:58:49.612Z,2.83
2023-04-30T02:01:33.387Z,3.43
2023-04-30T02:04:00.783Z,3.10
2023-04-30T02:06:29.613Z,3.13
2023-04-30T02:09:02.162Z,3.10
2023-04-30T02:11:31.992Z,2.90
2023-04-30T02:13:59.095Z,3.37
2023-04-30T02:16:26.698Z,3.03
2023-04-30T02:18:53.844Z,3.00
2023-04-30T02:21:21.127Z,3.27
2023-04-30T02:23:48.257Z,2.70
2023-04-30T02:26:15.322Z,2.77
2023-04-30T02:28:42.356Z,2.73
2023-04-30T02:31:10.347Z,2.77
2023-04-30T02:33:37.705Z,2.67
2023-04-30T02:36:04.975Z,2.80
2023-04-30T02:38:32.111Z,2.60
2023-04-30T02:40:59.155Z,3.60
2023-04-30T02:43:26.205Z,3.13
2023-04-30T02:45:53.312Z,2.97
2023-04-30T02:48:20.495Z,3.10
2023-04-30T02:50:47.604Z,2.63
2023-04-30T02:53:14.735Z,2.57
2023-04-30T02:55:41.806Z,3.20
2023-04-30T02:58:09.610Z,2.50
2023-04-30T03:00:36.647Z,2.83
2023-04-30T03:03:03.971Z,2.53
2023-04-30T03:05:31.207Z,2.80
2023-04-30T03:07:58.256Z,2.83
2023-04-30T03:10:25.375Z,2.60
2023-04-30T03:12:53.788Z,3.33
2023-04-30T03:15:20.847Z,3.17
2023-04-30T03:17:48.016Z,3.03
2023-04-30T03:20:15.183Z,2.97
2023-04-30T03:22:42.243Z,2.77
2023-04-30T03:25:11.569Z,2.97
2023-04-30T03:27:38.691Z,2.93
2023-04-30T03:30:07.137Z,3.07
2023-04-30T03:32:34.412Z,2.97
2023-04-30T03:35:01.541Z,2.80
2023-04-30T03:37:29.267Z,2.70
2023-04-30T03:39:56.553Z,2.37
2023-04-30T03:42:23.847Z,2.70
2023-04-30T03:44:50.891Z,2.37
2023-04-30T03:47:17.806Z,2.30
2023-04-30T03:49:44.927Z,2.87
2023-04-30T03:52:12.109Z,2.73
2023-04-30T03:54:39.480Z,3.00
2023-04-30T03:57:07.762Z,2.80
2023-04-30T03:59:34.579Z,2.60
2023-04-30T04:02:01.743Z,2.93
2023-04-30T04:04:29.979Z,2.53
2023-04-30T04:06:57.285Z,2.80
2023-04-30T04:09:24.437Z,3.13
2023-04-30T04:11:51.619Z,2.67
2023-04-30T04:14:18.699Z,2.60
2023-04-30T04:16:46.657Z,2.47
2023-04-30T04:19:14.186Z,2.40
2023-04-30T04:21:41.408Z,2.00
2023-04-30T04:24:14.356Z,2.70
2023-04-30T04:26:41.604Z,2.73
2023-04-30T04:29:09.577Z,2.90
2023-04-30T04:31:38.502Z,2.73
2023-04-30T04:34:05.916Z,12.20
2023-04-30T04:36:34.071Z,12.43
2023-04-30T04:39:01.911Z,7.30
2023-04-30T04:41:32.992Z,5.50
2023-04-30T04:44:01.717Z,4.23
2023-04-30T04:46:29.873Z,3.53
2023-04-30T04:48:57.472Z,4.30
2023-04-30T04:51:24.988Z,3.47
2023-04-30T04:53:51.640Z,2.90
2023-04-30T04:56:19.497Z,3.00
2023-04-30T04:58:46.609Z,2.50
2023-04-30T05:01:13.840Z,3.10
2023-04-30T05:03:41.647Z,3.53
2023-04-30T05:06:09.095Z,3.27
2023-04-30T05:08:36.320Z,3.17
2023-04-30T05:11:03.564Z,3.03
2023-04-30T05:13:31.004Z,3.53
2023-04-30T05:15:58.138Z,3.53
2023-04-30T05:18:25.324Z,3.37
2023-04-30T05:20:52.395Z,3.27
2023-04-30T05:23:18.980Z,2.67
2023-04-30T05:25:46.403Z,3.80
2023-04-30T05:28:13.481Z,3.63
2023-04-30T05:30:40.627Z,3.07
2023-04-30T05:33:07.708Z,3.33
2023-04-30T05:35:36.196Z,3.10
2023-04-30T05:38:03.636Z,4.13
2023-04-30T05:40:30.627Z,4.23
2023-04-30T05:42:57.716Z,3.93
2023-04-30T05:45:24.891Z,4.20
2023-04-30T05:47:51.999Z,4.80
2023-04-30T05:50:19.130Z,4.13
2023-04-30T05:52:46.146Z,3.70
2023-04-30T05:55:12.751Z,3.40
2023-04-30T05:57:39.862Z,3.77
2023-04-30T06:00:07.350Z,4.13
2023-04-30T06:02:39.514Z,5.13
2023-04-30T06:05:08.142Z,5.30
2023-04-30T06:07:35.229Z,4.43
2023-04-30T06:10:02.285Z,5.47
2023-04-30T06:12:29.310Z,5.17
2023-04-30T06:14:56.397Z,5.27
2023-04-30T06:17:23.459Z,5.50
2023-04-30T06:19:51.279Z,5.13
2023-04-30T06:22:18.355Z,4.67
2023-04-30T06:24:45.443Z,4.93
2023-04-30T06:27:12.054Z,4.33
2023-04-30T06:29:39.094Z,4.13
2023-04-30T06:32:08.372Z,4.97
2023-04-30T06:34:35.549Z,4.23
2023-04-30T06:37:02.159Z,3.50
2023-04-30T06:39:29.188Z,3.30
2023-04-30T06:41:56.220Z,4.30
2023-04-30T06:44:23.251Z,3.67
2023-04-30T06:46:50.483Z,4.00
2023-04-30T06:49:17.573Z,3.90
2023-04-30T06:51:44.596Z,4.20
2023-04-30T06:54:11.698Z,4.47
2023-04-30T06:56:38.317Z,3.83
2023-04-30T06:59:05.503Z,4.07
2023-04-30T07:01:32.703Z,4.33
2023-04-30T07:04:00.027Z,3.70
2023-04-30T07:06:26.730Z,4.27
2023-04-30T07:08:53.876Z,3.60
2023-04-30T07:11:21.219Z,4.10
2023-04-30T07:13:48.320Z,3.63
2023-04-30T07:16:17.012Z,3.80
2023-04-30T07:18:44.120Z,3.87
2023-04-30T07:21:11.137Z,3.77
2023-04-30T07:23:37.712Z,3.50
2023-04-30T07:26:04.802Z,3.00
2023-04-30T07:28:31.833Z,2.80
2023-04-30T07:30:58.895Z,2.70
2023-04-30T07:33:25.965Z,2.63
2023-04-30T07:35:54.336Z,2.17
2023-04-30T07:38:21.708Z,2.27
2023-04-30T07:40:48.804Z,2.33
2023-04-30T07:43:15.868Z,3.03
2023-04-30T07:45:43.118Z,1.97
2023-04-30T07:48:10.298Z,2.53
2023-04-30T07:50:37.637Z,2.77
2023-04-30T07:53:04.988Z,2.17
2023-04-30T07:55:32.066Z,2.10
2023-04-30T07:57:59.536Z,2.53
2023-04-30T08:00:26.673Z,2.13
2023-04-30T08:02:53.813Z,1.67
2023-04-30T08:05:21.206Z,1.63
2023-04-30T08:07:48.242Z,1.97
2023-04-30T08:10:14.926Z,1.50
2023-04-30T08:12:42.182Z,1.30
2023-04-30T08:15:09.316Z,1.33
2023-04-30T08:17:36.497Z,1.70
2023-04-30T08:20:07.062Z,2.47
2023-04-30T08:22:34.169Z,1.53
2023-04-30T08:25:01.901Z,1.10
2023-04-30T08:27:29.043Z,1.13
2023-04-30T08:29:55.933Z,1.30
2023-04-30T08:32:23.275Z,1.20
2023-04-30T08:34:50.461Z,1.30
2023-04-30T08:37:17.621Z,1.63
2023-04-30T08:39:44.692Z,1.53
2023-04-30T08:42:14.094Z,1.20
2023-04-30T08:44:44.006Z,1.50
2023-04-30T08:47:14.345Z,1.23
2023-04-30T08:49:41.498Z,1.30
2023-04-30T08:52:08.591Z,1.33
2023-04-30T08:54:38.226Z,1.70
2023-04-30T08:57:05.780Z,1.30
2023-04-30T08:59:32.854Z,1.67
2023-04-30T09:02:01.884Z,1.43
2023-04-30T09:04:29.281Z,1.20
2023-04-30T09:06:58.996Z,1.47
2023-04-30T09:09:30.663Z,1.23
2023-04-30T09:12:17.759Z,1.40
2023-04-30T09:15:02.080Z,1.30
2023-04-30T09:17:29.332Z,1.20
2023-04-30T09:20:07.519Z,1.23
2023-04-30T09:22:36.231Z,1.03
2023-04-30T09:25:03.591Z,1.27
2023-04-30T09:27:30.629Z,1.30
2023-04-30T09:29:57.410Z,1.23
2023-04-30T09:32:24.999Z,1.20
2023-04-30T09:34:52.976Z,1.30
2023-04-30T09:37:20.066Z,0.63
2023-04-30T09:39:54.331Z,1.00
2023-04-30T09:42:22.093Z,0.83
2023-04-30T09:44:48.803Z,1.00
2023-04-30T09:47:20.363Z,1.10
2023-04-30T09:49:54.294Z,1.30
2023-04-30T09:52:21.737Z,1.33
2023-04-30T09:54:49.439Z,1.03
2023-04-30T09:57:16.744Z,1.57
2023-04-30T09:59:46.000Z,1.20
2023-04-30T10:02:20.036Z,1.10
2023-04-30T10:04:52.880Z,1.40
2023-04-30T10:07:22.421Z,1.23
2023-04-30T10:09:51.546Z,1.23
2023-04-30T10:12:24.269Z,1.47
2023-04-30T10:15:17.512Z,1.10
2023-04-30T10:18:00.873Z,1.00
2023-04-30T10:20:29.099Z,0.80
2023-04-30T10:22:56.090Z,1.00
2023-04-30T10:25:23.510Z,0.80
2023-04-30T10:27:50.967Z,0.70
2023-04-30T10:30:18.569Z,0.90
2023-04-30T10:33:15.686Z,1.10
2023-04-30T10:36:00.167Z,1.23
2023-04-30T10:38:29.665Z,1.20
2023-04-30T10:40:58.177Z,1.10
2023-04-30T10:43:25.980Z,0.80
2023-04-30T10:45:53.100Z,1.20
2023-04-30T10:48:26.932Z,0.77
2023-04-30T10:50:56.791Z,0.90
2023-04-30T10:53:26.123Z,0.90
2023-04-30T10:55:53.277Z,0.87
2023-04-30T10:58:30.965Z,1.03
2023-04-30T11:01:15.583Z,1.00
2023-04-30T11:04:03.411Z,0.93
2023-04-30T11:07:03.438Z,1.17
2023-04-30T11:09:44.255Z,1.50
2023-04-30T11:12:16.008Z,1.20
2023-04-30T11:14:44.868Z,1.10
2023-04-30T11:17:13.403Z,0.93
2023-04-30T11:19:47.580Z,0.80
2023-04-30T11:22:24.441Z,1.07
2023-04-30T11:24:51.453Z,1.00
2023-04-30T11:27:32.896Z,0.80
2023-04-30T11:30:00.849Z,1.00
2023-04-30T11:32:34.656Z,0.73
2023-04-30T11:35:04.177Z,0.70
2023-04-30T11:37:36.069Z,1.00
2023-04-30T11:40:08.805Z,1.03
2023-04-30T11:42:36.047Z,0.90
2023-04-30T11:45:10.701Z,1.03
2023-04-30T11:47:47.519Z,0.80
2023-04-30T11:50:19.330Z,0.60
2023-04-30T11:52:50.748Z,1.10
2023-04-30T11:55:19.441Z,1.07
2023-04-30T11:57:49.233Z,1.77
2023-04-30T12:00:18.193Z,1.37
2023-04-30T12:02:47.077Z,1.13
2023-04-30T12:05:18.352Z,0.70
2023-04-30T12:07:47.129Z,0.87
2023-04-30T12:10:14.356Z,1.00
2023-04-30T12:12:43.634Z,0.87
2023-04-30T12:15:18.411Z,0.93
2023-04-30T12:17:46.614Z,0.70
2023-04-30T12:20:15.087Z,0.80
2023-04-30T12:22:43.532Z,1.00
2023-04-30T12:25:15.868Z,1.03
2023-04-30T12:27:46.678Z,1.13
2023-04-30T12:30:13.740Z,1.00
2023-04-30T12:32:46.025Z,1.33
2023-04-30T12:35:17.149Z,1.03
2023-04-30T12:37:45.203Z,1.10
2023-04-30T12:40:13.359Z,1.47
2023-04-30T12:42:40.671Z,1.50
2023-04-30T12:45:08.126Z,1.47
2023-04-30T12:47:40.180Z,1.20
2023-04-30T12:50:14.449Z,0.90
2023-04-30T12:52:41.775Z,1.10
2023-04-30T12:55:21.624Z,1.30
2023-04-30T12:58:07.614Z,1.60
2023-04-30T13:00:47.718Z,1.37
2023-04-30T13:03:16.550Z,1.43
2023-04-30T13:05:47.263Z,1.40
2023-04-30T13:08:14.619Z,1.40
2023-04-30T13:10:41.843Z,1.30
2023-04-30T13:13:08.956Z,1.77
2023-04-30T13:15:36.187Z,1.30
2023-04-30T13:18:03.804Z,1.53
2023-04-30T13:20:30.886Z,1.50
2023-04-30T13:22:57.954Z,1.57
2023-04-30T13:25:25.204Z,1.07
2023-04-30T13:27:52.276Z,1.40
2023-04-30T13:30:19.016Z,1.57
2023-04-30T13:32:46.466Z,1.40
2023-04-30T13:35:13.653Z,1.47
2023-04-30T13:37:40.928Z,1.43
2023-04-30T13:40:08.496Z,1.00
2023-04-30T13:42:37.827Z,1.20
2023-04-30T13:45:06.072Z,1.40
2023-04-30T13:47:33.294Z,1.43
2023-04-30T13:50:00.765Z,1.10
2023-04-30T13:52:27.891Z,0.80
2023-04-30T13:54:54.987Z,1.13
2023-04-30T13:57:22.078Z,0.70
2023-04-30T13:59:49.928Z,0.90
2023-04-30T14:02:16.731Z,1.07
2023-04-30T14:04:54.672Z,1.30
2023-04-30T14:07:29.339Z,1.33
2023-04-30T14:09:56.755Z,1.10
2023-04-30T14:12:24.620Z,1.00
2023-04-30T14:14:51.729Z,1.00
2023-04-30T14:17:18.775Z,1.13
2023-04-30T14:19:46.058Z,1.37
2023-04-30T14:22:12.786Z,0.80
2023-04-30T14:24:40.027Z,1.20
2023-04-30T14:27:07.156Z,1.27
2023-04-30T14:29:34.233Z,1.07
2023-04-30T14:32:01.400Z,1.57
2023-04-30T14:34:28.133Z,0.90
2023-04-30T14:36:55.503Z,1.30
2023-04-30T14:39:22.569Z,1.00
2023-04-30T14:41:50.646Z,1.47
2023-04-30T14:44:18.194Z,1.13
2023-04-30T14:46:46.267Z,1.00
2023-04-30T14:49:13.358Z,1.27
2023-04-30T14:51:40.370Z,1.10
2023-04-30T14:54:07.387Z,1.63
2023-04-30T14:56:34.113Z,1.17
2023-04-30T14:59:01.188Z,1.20
2023-04-30T15:01:30.245Z,1.20
2023-04-30T15:03:57.436Z,1.33
2023-04-30T15:06:24.627Z,1.30
2023-04-30T15:08:52.184Z,1.80
2023-04-30T15:11:18.820Z,1.37
2023-04-30T15:13:46.635Z,1.53
2023-04-30T15:16:13.758Z,1.10
2023-04-30T15:18:41.360Z,1.13
2023-04-30T15:21:08.388Z,1.20
2023-04-30T15:23:35.055Z,1.60
2023-04-30T15:26:04.335Z,1.27
2023-04-30T15:28:34.298Z,1.33
2023-04-30T15:31:01.635Z,1.20
2023-04-30T15:33:30.719Z,1.57
2023-04-30T15:35:57.929Z,1.10
2023-04-30T15:38:25.030Z,1.30
2023-04-30T15:40:52.156Z,1.57
2023-04-30T15:43:19.214Z,1.07
2023-04-30T15:45:48.194Z,1.10
2023-04-30T15:48:15.757Z,1.40
2023-04-30T15:50:42.848Z,1.57
2023-04-30T15:53:09.887Z,1.40
2023-04-30T15:55:36.886Z,1.03
2023-04-30T15:58:04.377Z,1.03
2023-04-30T16:00:31.484Z,1.10
2023-04-30T16:02:58.639Z,0.93
2023-04-30T16:05:25.758Z,0.80
2023-04-30T16:07:53.490Z,1.27
2023-04-30T16:10:21.525Z,1.10
2023-04-30T16:12:48.749Z,1.43
2023-04-30T16:15:15.832Z,1.00
2023-04-30T16:17:42.958Z,0.97
2023-04-30T16:20:10.377Z,1.20
2023-04-30T16:22:37.470Z,0.90
2023-04-30T16:25:04.642Z,0.90
2023-04-30T16:27:32.253Z,1.37
2023-04-30T16:29:59.505Z,0.87
2023-04-30T16:32:27.141Z,0.90
2023-04-30T16:34:54.318Z,0.90
2023-04-30T16:37:21.359Z,1.40
2023-04-30T16:39:48.386Z,1.33
2023-04-30T16:42:15.402Z,0.97
2023-04-30T16:44:42.460Z,1.50
2023-04-30T16:47:09.478Z,1.10
2023-04-30T16:49:36.524Z,1.47
2023-04-30T16:52:03.934Z,1.30
2023-04-30T16:54:31.044Z,1.93
2023-04-30T16:56:57.714Z,1.50
2023-04-30T16:59:24.778Z,1.40
2023-04-30T17:01:56.201Z,1.17
2023-04-30T17:04:23.273Z,1.73
2023-04-30T17:06:50.411Z,1.40
2023-04-30T17:09:17.498Z,1.30
2023-04-30T17:11:44.402Z,1.00
2023-04-30T17:14:11.423Z,1.03
2023-04-30T17:16:38.779Z,1.40
2023-04-30T17:19:05.859Z,0.90
2023-04-30T17:21:33.009Z,1.10
2023-04-30T17:24:00.033Z,1.40
2023-04-30T17:26:27.122Z,1.40
2023-04-30T17:28:54.173Z,1.10
2023-04-30T17:31:21.242Z,0.90
2023-04-30T17:33:48.465Z,1.40
2023-04-30T17:36:15.801Z,0.93
2023-04-30T17:38:42.873Z,1.13
2023-04-30T17:41:09.971Z,1.23
2023-04-30T17:43:37.009Z,1.07
2023-04-30T17:46:03.675Z,1.20
2023-04-30T17:48:31.104Z,1.30
2023-04-30T17:50:58.238Z,1.20
2023-04-30T17:53:25.301Z,1.40
2023-04-30T17:55:52.413Z,0.90
2023-04-30T17:58:19.428Z,1.10
2023-04-30T18:00:46.777Z,0.97
2023-04-30T18:03:13.932Z,1.30
2023-04-30T18:05:42.189Z,1.13
2023-04-30T18:08:10.154Z,1.83
2023-04-30T18:10:37.201Z,1.13
2023-04-30T18:13:04.251Z,1.63
2023-04-30T18:15:31.736Z,1.20
2023-04-30T18:17:59.437Z,1.30
2023-04-30T18:20:26.619Z,1.60
2023-04-30T18:22:53.640Z,1.63
2023-04-30T18:25:20.693Z,1.17
2023-04-30T18:27:47.760Z,1.47
2023-04-30T18:30:15.008Z,1.50
2023-04-30T18:32:44.073Z,1.80
2023-04-30T18:35:11.174Z,1.30
2023-04-30T18:37:38.268Z,1.40
2023-04-30T18:40:05.523Z,1.63
2023-04-30T18:42:33.276Z,1.37
2023-04-30T18:45:01.064Z,1.77
2023-04-30T18:47:28.149Z,1.40
2023-04-30T18:49:55.034Z,1.70
2023-04-30T18:52:22.858Z,1.50
2023-04-30T18:54:50.867Z,2.07
2023-04-30T18:57:18.466Z,1.60
2023-04-30T18:59:45.535Z,1.60
2023-04-30T19:02:12.682Z,1.97
2023-04-30T19:04:39.724Z,1.80
2023-04-30T19:07:06.763Z,1.50
2023-04-30T19:09:36.786Z,1.73
2023-04-30T19:12:03.854Z,3.80
2023-04-30T19:14:30.914Z,2.77
2023-04-30T19:16:58.128Z,4.43
2023-04-30T19:19:25.353Z,3.03
2023-04-30T19:21:53.371Z,1.40
2023-04-30T19:24:21.083Z,1.87
2023-04-30T19:26:50.676Z,1.20
2023-04-30T19:29:20.586Z,1.37
2023-04-30T19:31:47.851Z,1.83
2023-04-30T19:34:14.520Z,1.40
2023-04-30T19:36:43.747Z,1.40
2023-04-30T19:39:11.754Z,1.33
2023-04-30T19:41:39.126Z,1.70
2023-04-30T19:44:07.797Z,1.63
2023-04-30T19:46:34.890Z,1.67
2023-04-30T19:49:02.052Z,1.27
2023-04-30T19:51:28.725Z,1.20
2023-04-30T19:53:57.492Z,1.20
2023-04-30T19:56:25.047Z,1.70
2023-04-30T19:58:52.329Z,1.60
2023-04-30T20:01:19.611Z,1.50
2023-04-30T20:03:46.877Z,1.83
2023-04-30T20:06:13.712Z,1.67
2023-04-30T20:08:40.789Z,1.50
2023-04-30T20:11:07.410Z,1.77
2023-04-30T20:13:34.498Z,1.43
2023-04-30T20:16:02.395Z,1.90
2023-04-30T20:18:29.464Z,1.50
2023-04-30T20:20:59.219Z,1.70
2023-04-30T20:23:26.622Z,1.60
2023-04-30T20:25:54.919Z,1.70
2023-04-30T20:28:21.964Z,2.10
2023-04-30T20:30:49.399Z,2.00
2023-04-30T20:33:16.663Z,1.50
2023-04-30T20:35:47.170Z,1.60
2023-04-30T20:38:18.027Z,1.80
2023-04-30T20:40:47.005Z,1.50
2023-04-30T20:43:14.582Z,1.67
2023-04-30T20:45:44.579Z,1.80
2023-04-30T20:48:11.798Z,1.83
2023-04-30T20:50:38.936Z,1.50
2023-04-30T20:53:06.040Z,1.80
2023-04-30T20:55:33.166Z,2.00
2023-04-30T20:58:00.371Z,1.90
2023-04-30T21:00:27.661Z,1.73
2023-04-30T21:02:54.797Z,2.70
2023-04-30T21:05:21.878Z,1.70
2023-04-30T21:07:48.473Z,1.97
2023-04-30T21:10:16.036Z,1.70
2023-04-30T21:12:42.694Z,1.70
2023-04-30T21:15:10.376Z,2.30
2023-04-30T21:17:37.431Z,2.03
2023-04-30T21:20:04.630Z,1.70
2023-04-30T21:22:32.351Z,1.67
2023-04-30T21:24:58.945Z,1.80
2023-04-30T21:27:26.067Z,1.60
2023-04-30T21:29:53.235Z,1.60
2023-04-30T21:32:20.345Z,2.40
2023-04-30T21:34:47.372Z,1.80
2023-04-30T21:37:17.174Z,1.77
2023-04-30T21:39:44.643Z,1.53
2023-04-30T21:42:11.722Z,2.10
2023-04-30T21:44:39.774Z,1.90
2023-04-30T21:47:08.613Z,1.70
2023-04-30T21:49:35.775Z,1.83
2023-04-30T21:52:04.386Z,2.20
2023-04-30T21:54:30.991Z,2.17
2023-04-30T21:56:58.062Z,2.10
2023-04-30T21:59:25.079Z,1.80
2023-04-30T22:01:52.498Z,2.10
2023-04-30T22:04:21.412Z,2.47
2023-04-30T22:06:48.745Z,2.10
2023-04-30T22:09:15.904Z,1.97
2023-04-30T22:11:43.270Z,2.30
2023-04-30T22:14:10.633Z,1.90
2023-04-30T22:16:37.747Z,2.10
2023-04-30T22:19:04.865Z,1.90
2023-04-30T22:21:32.260Z,1.90
2023-04-30T22:24:00.743Z,1.90
2023-04-30T22:26:27.852Z,1.90
2023-04-30T22:28:56.994Z,2.17
2023-04-30T22:31:23.766Z,2.30
2023-04-30T22:33:50.886Z,2.23
2023-04-30T22:36:17.965Z,2.23
2023-04-30T22:38:45.012Z,2.77
2023-04-30T22:41:12.405Z,2.20
2023-04-30T22:43:39.598Z,1.83
2023-04-30T22:46:06.693Z,1.93
2023-04-30T22:48:34.268Z,2.20
2023-04-30T22:51:01.404Z,1.87
2023-04-30T22:53:28.532Z,2.23
2023-04-30T22:55:55.629Z,2.13
2023-04-30T22:58:22.280Z,2.00
2023-04-30T23:00:49.458Z,2.53
2023-04-30T23:03:16.342Z,2.37
2023-04-30T23:05:43.369Z,2.50
2023-04-30T23:08:10.658Z,2.33
2023-04-30T23:10:37.706Z,2.13
2023-04-30T23:13:04.262Z,2.03
2023-04-30T23:15:31.324Z,2.00
2023-04-30T23:18:00.152Z,2.27
2023-04-30T23:20:27.425Z,2.20
2023-04-30T23:22:55.121Z,2.20
2023-04-30T23:25:22.194Z,2.13
2023-04-30T23:27:49.210Z,2.00
2023-04-30T23:30:16.603Z,2.10
2023-04-30T23:32:43.670Z,1.60
2023-04-30T23:35:10.813Z,2.40
2023-04-30T23:37:37.384Z,1.90
2023-04-30T23:40:07.253Z,2.20
2023-04-30T23:42:34.662Z,2.40
2023-04-30T23:45:01.890Z,2.50
2023-04-30T23:47:29.026Z,2.60
2023-04-30T23:49:56.490Z,2.87
2023-04-30T23:52:23.766Z,2.83
2023-04-30T23:54:50.911Z,2.07
2023-04-30T23:57:17.975Z,2.40
2023-04-30T23:59:45.034Z,2.27
